首页
METAR-TAF:

METAR-TAF

机场 :

Sussex Airport

Sussex, 新泽西州, 美国

纬度: 41-12-01N, 经度: 074-37-23W, 海拔: 128米

当前天气观测

该预报发布于49分钟前的16:53 UTC
风速4节,风向多变
温度 7°C
湿度 39%
气压 1024 hPa
能見度: 16.1公里
天空无云

METAR: KFWN 171653Z AUTO VRB04KT 10SM CLR 07/M06 A3025 RMK AO2 SLP248 T00671056

时间: 12:42 (17:42 UTC)


TAF: 丢失

超过4000个机场的气象观测和天气预报(METAR&TAF报告)。

可查询的气象台以黄色和红色小点在地图上表示。

将鼠标移到小点上方,可查看气象台名称。

然后点击查看天气观测和预报。

如需切换地图:点击带黑十字的绿色按钮放大地图;点击带横线的绿色按钮缩小地图;或者点击绿色箭头查看邻近地区的地图。


METAR-TAF: